CYZX

CFB Greenwood Airport

Greenwood, Nova Scotia, Canada
METAR CYZX 240300Z 26005KT 15SM FEW050 BKN130 11/08 A3029 RMK SC2AC4 SLP257
Observed Flight Rules
Sep-24 @ 03:00 UTC (53 minutes ago) Visual Flight Rules
Wind Visibility Clouds
260° at 5 knots 15 miles
  • Few at 5,000' AGL
  • Broken at 13,000' AGL
Temperatures Readings
Current 11°C / 52°F
Dewpoint 8°C / 46°F
Humidity 82%
Altimeter 30.29" Hg
Pressure 1025.7 hPa
Elevation 28
METAR CYZX 240300Z 26005KT 15SM FEW050 BKN130 11/08 A3029 RMK SC2AC4 SLP257
Observed Flight Rules
Sep-24 @ 03:00 UTC
(53 minutes ago)
VFR
Wind Visibility
260° at 5 knots 15 miles
Clouds
  • Few at 5,000' AGL
  • Broken at 13,000' AGL
Temperature Dewpoint
11°C / 52°F 8°C / 46°F
Humidity Altimeter Pressure
82% 30.29" Hg 1025.7 hPa